Hope, Kentucky
Current Conditions -  °F | °C
As of 5:35 AM on Thursday 27 Nov 2014 (Local Time) from KIOB Reporting Station
Light Snow Light Snow  
Wind Chill: 32°   Ceiling: 2400
Heat Index: 32°   Visibility: 2.5mi
Dew Point: 30°   Wind: 3mph
Humidity: 93%   Direction: 360°N
Pressure: 30.12"   Gusts: NA
Location:  38.02°N, 83.77°W
Report Text: KIOB 271035Z AUTO 36003KT 2 1/2SM -SN BKN024 BKN033 OVC070 00/M01 A3012 RMK AO2
Loading
Personal Weather Stations






























Interactive Weather Map New forecast layout! Learn more

10-Day Weather Forecast

Advertisements
Track Severe Weather on mobile